createdAt,value
2022-11-05T00:01:51.690Z,100.00
2022-11-05T00:04:36.827Z,100.00
2022-11-05T00:07:37.642Z,100.00
2022-11-05T00:10:16.973Z,100.00
2022-11-05T00:13:01.994Z,100.00
2022-11-05T00:15:47.345Z,100.00
2022-11-05T00:18:13.898Z,100.00
2022-11-05T00:20:40.533Z,100.00
2022-11-05T00:23:25.512Z,100.00
2022-11-05T00:25:59.128Z,100.00
2022-11-05T00:28:27.184Z,100.00
2022-11-05T00:30:54.733Z,100.00
2022-11-05T00:33:21.311Z,100.00
2022-11-05T00:35:47.865Z,100.00
2022-11-05T00:38:14.511Z,100.00
2022-11-05T00:40:41.149Z,100.00
2022-11-05T00:43:26.480Z,100.00
2022-11-05T00:45:53.093Z,100.00
2022-11-05T00:48:38.791Z,100.00
2022-11-05T00:51:05.614Z,100.00
2022-11-05T00:53:32.255Z,100.00
2022-11-05T00:55:58.910Z,100.00
2022-11-05T00:58:27.237Z,100.00
2022-11-05T01:00:56.017Z,100.00
2022-11-05T01:03:25.358Z,100.00
2022-11-05T01:05:54.990Z,100.00
2022-11-05T01:08:24.183Z,100.00
2022-11-05T01:10:53.913Z,100.00
2022-11-05T01:13:24.106Z,100.00
2022-11-05T01:15:51.562Z,100.00
2022-11-05T01:18:19.633Z,100.00
2022-11-05T01:20:46.883Z,100.00
2022-11-05T01:23:14.072Z,100.00
2022-11-05T01:25:42.121Z,100.00
2022-11-05T01:28:09.773Z,100.00
2022-11-05T01:30:37.634Z,100.00
2022-11-05T01:33:04.342Z,100.00
2022-11-05T01:35:30.930Z,100.00
2022-11-05T01:37:57.474Z,100.00
2022-11-05T09:36:04.083Z,100.00
2022-11-05T09:38:32.805Z,100.00
2022-11-05T09:41:17.356Z,100.00
2022-11-05T09:43:48.356Z,100.00
2022-11-05T09:46:26.602Z,99.55
2022-11-05T09:49:05.148Z,96.35
2022-11-05T09:51:32.711Z,96.62
2022-11-05T09:54:00.388Z,94.09
2022-11-05T09:56:30.722Z,95.51
2022-11-05T09:59:18.388Z,94.78
2022-11-05T10:01:46.794Z,94.15
2022-11-05T10:04:18.798Z,94.82
2022-11-05T10:07:04.060Z,95.07
2022-11-05T10:09:57.916Z,95.39
2022-11-05T10:12:34.177Z,94.13
2022-11-05T10:15:14.942Z,93.12
2022-11-05T10:17:49.581Z,94.15
2022-11-05T10:20:24.149Z,94.12
2022-11-05T10:23:08.861Z,94.16
2022-11-05T10:25:39.928Z,93.78
2022-11-05T10:28:08.263Z,94.25
2022-11-05T10:30:35.102Z,94.31
2022-11-05T10:33:05.494Z,92.97
2022-11-05T10:35:35.748Z,91.69
2022-11-05T10:38:02.916Z,92.09
2022-11-05T10:40:51.320Z,91.79
2022-11-05T10:43:30.072Z,91.64
2022-11-05T10:46:21.964Z,92.22
2022-11-05T10:49:06.638Z,91.56
2022-11-05T10:51:34.070Z,91.43
2022-11-05T10:54:06.101Z,90.44
2022-11-05T10:56:38.781Z,90.00
2022-11-05T10:59:19.078Z,89.52
2022-11-05T11:01:46.804Z,90.00
2022-11-05T11:04:22.676Z,87.87
2022-11-05T11:06:52.850Z,88.59
2022-11-05T11:09:31.795Z,86.62
2022-11-05T11:12:04.288Z,86.13
2022-11-05T11:14:31.541Z,86.87
2022-11-05T11:17:42.096Z,84.45
2022-11-05T11:20:27.523Z,83.96
2022-11-05T11:23:16.556Z,85.42
2022-11-05T11:26:01.099Z,84.55
2022-11-05T11:28:33.840Z,84.90
2022-11-05T11:31:09.001Z,85.01
2022-11-05T11:33:37.162Z,85.17
2022-11-05T11:36:05.121Z,84.40
2022-11-05T11:38:34.682Z,83.41
2022-11-05T11:41:29.766Z,82.40
2022-11-05T11:44:02.663Z,81.87
2022-11-05T11:46:33.354Z,81.96
2022-11-05T11:49:00.674Z,82.29
2022-11-05T11:51:40.776Z,81.36
2022-11-05T11:54:19.898Z,80.35
2022-11-05T11:56:48.280Z,80.08
2022-11-05T11:59:46.924Z,81.18
2022-11-05T12:02:42.167Z,79.17
2022-11-05T12:05:08.782Z,78.43
2022-11-05T12:07:53.186Z,79.27
2022-11-05T12:10:22.581Z,79.61
2022-11-05T12:13:19.600Z,76.44
2022-11-05T12:15:51.772Z,76.17
2022-11-05T12:18:48.839Z,75.55
2022-11-05T12:21:53.286Z,75.60
2022-11-05T12:24:23.122Z,74.95
2022-11-05T12:26:55.728Z,75.27
2022-11-05T12:29:44.294Z,73.87
2022-11-05T12:32:26.222Z,71.55
2022-11-05T12:34:57.491Z,72.18
2022-11-05T12:37:30.757Z,72.83
2022-11-05T12:40:26.343Z,71.95
2022-11-05T12:43:35.341Z,70.58
2022-11-05T12:46:20.156Z,68.15
2022-11-05T12:49:01.354Z,69.92
2022-11-05T12:51:50.855Z,69.41
2022-11-05T12:54:44.869Z,67.59
2022-11-05T12:57:14.020Z,67.05
2022-11-05T12:59:48.515Z,65.88
2022-11-05T13:02:30.953Z,68.98
2022-11-05T13:05:16.431Z,66.87
2022-11-05T13:08:09.563Z,67.91
2022-11-05T13:10:56.643Z,66.17
2022-11-05T13:13:40.218Z,66.10
2022-11-05T13:16:32.695Z,67.16
2022-11-05T13:19:24.359Z,67.89
2022-11-05T13:21:56.673Z,68.60
2022-11-05T13:24:39.224Z,68.18
2022-11-05T13:27:40.355Z,68.18
2022-11-05T13:30:12.642Z,70.18
2022-11-05T13:32:45.302Z,70.82
2022-11-05T13:35:37.058Z,69.02
2022-11-05T13:38:27.419Z,69.88
2022-11-05T13:40:56.742Z,70.91
2022-11-05T13:43:41.416Z,69.67
2022-11-05T13:46:07.968Z,71.43
2022-11-05T13:48:59.031Z,71.04
2022-11-05T13:51:43.998Z,70.06
2022-11-05T13:54:38.302Z,70.76
2022-11-05T13:57:31.770Z,70.52
2022-11-05T14:00:30.868Z,71.26
2022-11-05T14:03:04.793Z,71.68
2022-11-05T14:05:37.993Z,72.22
2022-11-05T14:08:11.009Z,72.14
2022-11-05T14:10:42.429Z,72.36
2022-11-05T14:13:23.658Z,72.09
2022-11-05T14:16:09.086Z,72.69
2022-11-05T14:18:35.592Z,72.80
2022-11-05T14:21:04.359Z,72.34
2022-11-05T14:23:30.947Z,71.48
2022-11-05T14:26:13.827Z,71.89
2022-11-05T14:28:46.828Z,71.04
2022-11-05T14:31:13.381Z,70.40
2022-11-05T14:33:40.041Z,71.05
2022-11-05T14:36:21.969Z,70.97
2022-11-05T14:38:51.512Z,69.56
2022-11-05T14:41:19.377Z,69.80
2022-11-05T14:44:06.869Z,69.54
2022-11-05T14:46:45.288Z,69.10
2022-11-05T14:49:25.865Z,69.00
2022-11-05T14:51:56.091Z,69.38
2022-11-05T14:54:37.061Z,69.42
2022-11-05T14:57:03.916Z,69.38
2022-11-05T14:59:33.384Z,69.43
2022-11-05T15:02:06.136Z,68.96
2022-11-05T15:04:36.165Z,71.19
2022-11-05T15:07:02.784Z,70.46
2022-11-05T15:09:34.713Z,70.44
2022-11-05T15:12:09.227Z,69.92
2022-11-05T15:14:55.061Z,70.19
2022-11-05T15:17:31.757Z,69.92
2022-11-05T15:20:14.199Z,70.17
2022-11-05T15:22:44.509Z,70.73
2022-11-05T15:25:45.774Z,68.04
2022-11-05T15:28:38.663Z,68.65
2022-11-05T15:31:20.828Z,69.41
2022-11-05T15:33:48.378Z,69.08
2022-11-05T15:36:17.868Z,69.57
2022-11-05T15:38:56.838Z,69.53
2022-11-05T15:41:34.409Z,69.92
2022-11-05T15:44:02.763Z,70.92
2022-11-05T15:46:30.171Z,70.88
2022-11-05T15:48:59.954Z,70.63
2022-11-05T15:51:26.763Z,71.10
2022-11-05T15:54:23.933Z,70.28
2022-11-05T15:57:00.260Z,70.32
2022-11-05T15:59:30.266Z,71.53
2022-11-05T16:02:04.643Z,70.76
2022-11-05T16:04:35.048Z,70.51
2022-11-05T16:07:08.984Z,71.34
2022-11-05T16:09:40.040Z,71.15
2022-11-05T16:12:18.471Z,71.90
2022-11-05T16:14:57.186Z,71.97
2022-11-05T16:17:26.535Z,72.48
2022-11-05T16:19:54.129Z,72.53
2022-11-05T16:22:20.818Z,72.99
2022-11-05T16:24:48.239Z,73.18
2022-11-05T16:27:20.288Z,73.28
2022-11-05T16:29:50.339Z,74.12
2022-11-05T16:32:31.692Z,74.54
2022-11-05T16:35:05.667Z,74.68
2022-11-05T16:37:41.147Z,73.86
2022-11-05T16:40:20.123Z,73.92
2022-11-05T16:42:48.553Z,74.80
2022-11-05T16:45:18.019Z,74.92
2022-11-05T16:47:44.960Z,74.92
2022-11-05T16:50:21.867Z,74.35
2022-11-05T16:52:48.852Z,75.42
2022-11-05T16:55:16.409Z,75.11
2022-11-05T16:57:45.514Z,75.06
2022-11-05T17:00:17.594Z,75.09
2022-11-05T17:02:45.253Z,75.66
2022-11-05T17:05:22.622Z,75.99
2022-11-05T17:07:49.221Z,75.64
2022-11-05T17:10:16.679Z,76.35
2022-11-05T17:12:43.292Z,76.10
2022-11-05T17:15:17.416Z,76.41
2022-11-05T17:17:44.021Z,76.13
2022-11-05T17:20:25.646Z,77.13
2022-11-05T17:22:52.192Z,76.93
2022-11-05T17:25:18.782Z,77.27
2022-11-05T17:27:45.421Z,77.21
2022-11-05T17:30:12.848Z,77.22
2022-11-05T17:32:39.525Z,77.42
2022-11-05T17:35:07.442Z,77.81
2022-11-05T17:37:34.774Z,78.15
2022-11-05T17:40:02.045Z,78.82
2022-11-05T17:42:28.642Z,78.85
2022-11-05T17:44:55.229Z,79.27
2022-11-05T17:47:21.778Z,79.32
